Time;durP1;ratioP1;P1;durP2;ratioP2;P2;SDS_P1;SDS_P2;PMS_P1;PMS_P2;Temp;Humidity;BMP_temperature;BMP_pressure;BME280_temperature;BME280_humidity;BME280_pressure;Samples;Min_cycle;Max_cycle;Signal;HPM_P1;HPM_P2
2022/10/11 00:00:16;;;;;;;11.00;4.10;;;;;;;9.65;73.23;102374.06;6215832;23;20465;-63
2022/10/11 00:02:41;;;;;;;13.10;4.15;;;;;;;9.62;72.42;102369.56;6215882;23;20011;-63
2022/10/11 00:05:07;;;;;;;9.23;3.92;;;;;;;9.62;73.23;102377.47;6215897;23;20009;-65
2022/10/11 00:07:33;;;;;;;13.00;4.27;;;;;;;9.60;73.17;102375.63;6215620;23;20008;-63
2022/10/11 00:09:58;;;;;;;11.20;4.40;;;;;;;9.55;72.91;102378.09;6215510;23;20005;-64
2022/10/11 00:12:24;;;;;;;9.45;4.00;;;;;;;9.42;73.82;102382.00;6215688;23;20501;-63
2022/10/11 00:14:49;;;;;;;12.13;3.95;;;;;;;9.38;73.96;102385.34;6215829;23;20008;-63
2022/10/11 00:17:14;;;;;;;11.43;4.18;;;;;;;9.37;74.65;102374.72;6214249;23;20035;-65
2022/10/11 00:19:40;;;;;;;9.65;3.88;;;;;;;9.37;74.85;102385.25;6215528;23;20383;-63
2022/10/11 00:22:05;;;;;;;12.18;4.05;;;;;;;9.40;74.15;102378.38;6216021;23;20032;-64
2022/10/11 00:24:31;;;;;;;11.27;4.07;;;;;;;9.48;73.55;102381.31;6215627;23;20016;-63
2022/10/11 00:26:56;;;;;;;7.43;3.42;;;;;;;9.48;71.90;102379.59;6215536;23;20087;-63
2022/10/11 00:29:21;;;;;;;12.10;3.80;;;;;;;9.50;70.61;102380.53;6215520;23;20012;-63
2022/10/11 00:31:47;;;;;;;15.80;3.85;;;;;;;9.37;71.48;102383.53;6215946;23;20446;-63
2022/10/11 00:34:14;;;;;;;8.93;3.42;;;;;;;9.25;71.84;102383.06;6215560;23;20088;-64
2022/10/11 00:36:39;;;;;;;10.30;3.80;;;;;;;9.18;72.07;102386.25;6215750;23;20012;-64
2022/10/11 00:39:05;;;;;;;10.30;3.75;;;;;;;9.16;71.92;102386.19;6215498;23;20047;-67
2022/10/11 00:41:30;;;;;;;10.05;3.90;;;;;;;9.10;72.07;102390.31;6215667;23;20005;-63
2022/10/11 00:44:11;;;;;;;11.88;3.60;;;;;;;9.11;72.23;102393.00;6215908;23;20373;-64
2022/10/11 00:46:38;;;;;;;9.75;3.70;;;;;;;9.07;72.18;102392.81;6215727;23;20374;-63
2022/10/11 00:49:35;;;;;;;7.95;3.50;;;;;;;9.13;71.92;102396.63;6215504;23;20005;-63
2022/10/11 00:52:15;;;;;;;12.80;3.92;;;;;;;9.13;71.77;102395.72;6215603;23;20415;-62
2022/10/11 00:54:43;;;;;;;9.02;3.40;;;;;;;9.11;71.49;102400.91;6215967;23;20005;-64
2022/10/11 00:57:17;;;;;;;9.43;3.33;;;;;;;9.09;71.37;102399.97;6188855;23;20012;-63
2022/10/11 00:59:48;;;;;;;10.00;3.47;;;;;;;9.08;70.34;102398.19;6215647;23;20160;-65
2022/10/11 01:02:14;;;;;;;12.52;3.65;;;;;;;9.01;71.53;102404.91;6215469;23;20015;-65
2022/10/11 01:04:41;;;;;;;6.32;3.58;;;;;;;8.89;71.46;102407.03;6217149;23;20004;-63
2022/10/11 01:07:07;;;;;;;10.13;3.45;;;;;;;8.80;71.11;102414.53;6217462;23;20079;-63
2022/10/11 01:09:33;;;;;;;9.77;3.40;;;;;;;8.72;72.15;102408.03;6217123;23;20351;-63
2022/10/11 01:12:01;;;;;;;9.50;3.60;;;;;;;8.74;72.30;102411.66;6217364;23;20036;-64
2022/10/11 01:14:42;;;;;;;7.65;3.50;;;;;;;8.74;72.76;102411.66;6216531;23;20008;-64
2022/10/11 01:17:10;;;;;;;7.07;3.22;;;;;;;8.69;72.47;102408.81;6217308;23;20013;-64
2022/10/11 01:20:09;;;;;;;7.18;3.00;;;;;;;8.65;72.48;102408.59;6217187;23;20016;-63
2022/10/11 01:23:07;;;;;;;7.70;3.53;;;;;;;8.60;72.85;102411.03;6217360;23;20343;-63
2022/10/11 01:25:41;;;;;;;9.13;3.60;;;;;;;8.57;72.93;102413.56;6176126;23;20012;-64
2022/10/11 01:28:15;;;;;;;9.75;3.90;;;;;;;8.58;72.95;102414.47;6217263;23;20374;-63
2022/10/11 01:30:41;;;;;;;8.75;3.55;;;;;;;8.63;72.25;102415.56;6217192;23;20009;-64
2022/10/11 01:33:25;;;;;;;10.05;3.70;;;;;;;8.62;71.23;102411.13;6217187;23;20009;-64
2022/10/11 01:36:06;;;;;;;10.95;3.25;;;;;;;8.60;72.40;102418.03;6217556;23;20091;-62
2022/10/11 01:38:40;;;;;;;8.70;3.40;;;;;;;8.56;71.16;102411.72;6217242;23;20000;-64
2022/10/11 01:41:15;;;;;;;11.45;3.78;;;;;;;8.45;72.61;102418.28;6216974;23;20008;-64
2022/10/11 01:43:41;;;;;;;7.18;3.50;;;;;;;8.32;72.84;102414.16;6217205;23;20012;-63
2022/10/11 01:46:08;;;;;;;10.70;3.78;;;;;;;8.22;74.28;102418.13;6217143;23;20011;-64
2022/10/11 01:48:49;;;;;;;8.73;3.50;;;;;;;8.19;73.94;102415.34;6217311;23;20331;-64
2022/10/11 01:51:18;;;;;;;8.63;3.60;;;;;;;8.22;74.38;102417.19;6217055;23;20016;-64
2022/10/11 01:54:01;;;;;;;7.03;3.38;;;;;;;8.24;73.31;102423.44;6217089;23;20355;-64
2022/10/11 01:56:29;;;;;;;10.35;3.47;;;;;;;8.13;73.57;102427.31;6217111;23;20015;-64
2022/10/11 01:58:57;;;;;;;12.38;3.42;;;;;;;8.02;75.00;102427.72;6216995;23;20016;-64
2022/10/11 02:01:48;;;;;;;11.07;3.70;;;;;;;8.07;76.29;102429.66;6216975;23;20004;-62
2022/10/11 02:04:44;;;;;;;14.65;4.22;;;;;;;8.13;75.99;102428.19;6217033;23;20467;-63
2022/10/11 02:07:22;;;;;;;12.57;3.80;;;;;;;8.18;74.91;102433.69;6204604;23;20088;-63
2022/10/11 02:10:02;;;;;;;9.80;3.90;;;;;;;8.21;75.35;102433.81;6216590;23;20053;-64
2022/10/11 02:12:50;;;;;;;9.07;3.70;;;;;;;8.22;74.77;102435.63;6216883;23;20081;-65
2022/10/11 02:15:18;;;;;;;10.75;3.30;;;;;;;8.25;73.49;102428.78;6216793;23;20008;-64
2022/10/11 02:17:55;;;;;;;11.65;3.63;;;;;;;8.38;73.69;102429.38;6216864;23;20009;-63
2022/10/11 02:20:23;;;;;;;11.85;3.88;;;;;;;8.39;72.82;102437.31;6216420;23;20066;-64
2022/10/11 02:22:52;;;;;;;6.20;3.30;;;;;;;8.39;72.33;102444.31;6216561;23;20423;-64
2022/10/11 02:25:24;;;;;;;11.43;3.60;;;;;;;8.26;72.85;102438.50;6216719;23;20007;-62
2022/10/11 02:27:53;;;;;;;8.70;3.55;;;;;;;8.18;72.37;102444.22;6216716;23;20005;-63
2022/10/11 02:30:18;;;;;;;6.78;3.25;;;;;;;8.11;72.77;102440.41;6216671;23;20423;-64
2022/10/11 02:32:45;;;;;;;7.35;3.50;;;;;;;8.08;72.74;102439.34;6217040;23;20019;-64
2022/10/11 02:35:11;;;;;;;11.20;3.67;;;;;;;8.04;73.03;102444.47;6216911;23;20011;-63
2022/10/11 02:37:48;;;;;;;11.80;3.50;;;;;;;8.04;73.08;102441.84;6216588;23;20056;-64
2022/10/11 02:40:36;;;;;;;8.57;3.80;;;;;;;8.11;73.70;102442.16;6216581;23;20012;-64
2022/10/11 02:43:22;;;;;;;4.75;3.10;;;;;;;8.05;72.74;102440.13;6216912;23;20013;-62
2022/10/11 02:45:53;;;;;;;5.70;2.90;;;;;;;7.98;72.42;102443.31;6216584;23;20004;-63
2022/10/11 02:48:19;;;;;;;9.15;3.47;;;;;;;7.95;73.77;102449.31;6216804;23;20004;-67
2022/10/11 02:50:44;;;;;;;12.32;3.83;;;;;;;7.93;73.52;102439.56;6216549;23;20453;-63
2022/10/11 02:53:10;;;;;;;12.75;3.70;;;;;;;7.92;74.67;102436.03;6214950;23;20004;-63
2022/10/11 02:55:35;;;;;;;8.65;3.90;;;;;;;7.91;74.79;102441.19;6189929;23;20419;-64
2022/10/11 02:58:01;;;;;;;9.75;3.85;;;;;;;7.95;74.29;102448.41;6216398;23;20331;-64
2022/10/11 03:00:27;;;;;;;10.02;4.30;;;;;;;8.00;74.52;102439.00;6189950;23;20004;-63
2022/10/11 03:02:52;;;;;;;6.68;3.42;;;;;;;8.04;73.20;102440.94;6216347;23;20095;-63
2022/10/11 03:05:18;;;;;;;8.68;3.75;;;;;;;8.10;71.88;102438.63;6216366;23;20004;-63
2022/10/11 03:07:43;;;;;;;8.38;3.20;;;;;;;8.05;72.02;102440.13;6216229;23;20005;-64
2022/10/11 03:10:09;;;;;;;9.68;3.60;;;;;;;8.00;72.22;102446.91;6216092;23;20004;-62
2022/10/11 03:12:34;;;;;;;8.20;3.45;;;;;;;7.98;71.90;102443.31;6216312;23;20015;-63
2022/10/11 03:15:00;;;;;;;10.32;3.58;;;;;;;8.00;72.11;102447.78;6216295;23;20419;-64
2022/10/11 03:17:26;;;;;;;8.32;3.47;;;;;;;7.96;72.09;102445.84;6216504;23;20015;-64
2022/10/11 03:19:52;;;;;;;6.22;3.60;;;;;;;7.82;71.28;102451.28;6215843;23;20008;-63
2022/10/11 03:22:17;;;;;;;7.50;3.50;;;;;;;7.65;71.83;102455.75;6214726;23;20013;-63
2022/10/11 03:24:43;;;;;;;8.10;3.60;;;;;;;7.53;73.20;102456.94;6216116;23;20423;-64
2022/10/11 03:27:08;;;;;;;7.38;3.50;;;;;;;7.45;73.50;102453.06;6216134;23;20004;-63
2022/10/11 03:29:33;;;;;;;7.82;3.47;;;;;;;7.42;73.49;102465.16;6216318;23;20181;-62
2022/10/11 03:31:59;;;;;;;7.63;3.38;;;;;;;7.42;74.52;102458.16;6216126;23;20380;-65
2022/10/11 03:34:24;;;;;;;8.70;3.40;;;;;;;7.48;74.65;102463.72;6216362;23;20013;-63
2022/10/11 03:36:50;;;;;;;5.47;3.15;;;;;;;7.49;73.57;102465.53;6214562;23;20013;-64
2022/10/11 03:39:16;;;;;;;8.00;3.30;;;;;;;7.49;73.69;102465.53;6216176;23;20446;-65
2022/10/11 03:41:41;;;;;;;5.75;3.10;;;;;;;7.57;73.24;102463.25;6216005;23;20326;-63
2022/10/11 03:44:06;;;;;;;7.13;3.45;;;;;;;7.60;72.57;102465.16;6215967;23;20009;-64
2022/10/11 03:46:32;;;;;;;7.05;3.40;;;;;;;7.58;71.82;102464.16;6215935;23;20008;-65
2022/10/11 03:48:57;;;;;;;5.53;3.08;;;;;;;7.55;72.76;102466.66;6215847;23;20011;-63
2022/10/11 03:51:22;;;;;;;6.32;3.25;;;;;;;7.44;71.79;102472.28;6215892;23;20005;-64
2022/10/11 03:53:48;;;;;;;8.40;3.10;;;;;;;7.39;73.27;102479.03;6216049;23;20004;-65
2022/10/11 03:56:13;;;;;;;6.05;3.17;;;;;;;7.43;72.80;102470.47;6215927;23;20370;-64
2022/10/11 03:58:40;;;;;;;11.27;3.10;;;;;;;7.47;71.84;102474.16;6215862;23;20335;-63
2022/10/11 04:01:06;;;;;;;8.23;3.30;;;;;;;7.48;71.65;102475.97;6189700;23;20008;-63
2022/10/11 04:03:31;;;;;;;6.97;2.70;;;;;;;7.49;72.20;102483.94;6215826;23;20011;-64
2022/10/11 04:05:56;;;;;;;7.93;3.20;;;;;;;7.42;72.18;102473.94;6215772;23;20037;-65
2022/10/11 04:08:22;;;;;;;10.50;3.03;;;;;;;7.35;72.39;102476.19;6215820;23;20428;-63
2022/10/11 04:10:48;;;;;;;9.07;3.00;;;;;;;7.28;72.05;102475.91;6189042;23;20036;-62
2022/10/11 04:13:13;;;;;;;7.50;2.90;;;;;;;7.25;72.53;102483.63;6215756;23;20028;-64
2022/10/11 04:15:40;;;;;;;9.80;3.60;;;;;;;7.24;72.35;102491.44;6216025;23;20375;-65
2022/10/11 04:18:06;;;;;;;6.45;2.85;;;;;;;7.24;72.76;102479.19;6216075;23;20180;-63
2022/10/11 04:20:32;;;;;;;11.48;3.35;;;;;;;7.31;72.16;102487.38;6215348;23;20023;-65
2022/10/11 04:22:57;;;;;;;10.45;3.70;;;;;;;7.35;72.51;102497.22;6215602;23;20072;-63
2022/10/11 04:25:22;;;;;;;5.53;3.10;;;;;;;7.27;71.99;102502.97;6215574;23;20005;-67
2022/10/11 04:27:48;;;;;;;8.60;3.50;;;;;;;7.17;72.95;102492.84;6215813;23;20012;-63
2022/10/11 04:30:13;;;;;;;6.20;3.65;;;;;;;7.07;74.05;102497.56;6215563;23;20427;-64
2022/10/11 04:32:39;;;;;;;8.77;3.60;;;;;;;6.94;74.55;102506.53;6215582;23;20001;-64
2022/10/11 04:35:05;;;;;;;12.05;3.78;;;;;;;6.87;74.42;102502.69;6215858;23;20059;-63
2022/10/11 04:37:30;;;;;;;9.07;3.33;;;;;;;6.80;74.56;102510.16;6215546;23;20419;-63
2022/10/11 04:39:56;;;;;;;7.75;3.45;;;;;;;6.84;74.34;102512.13;6216749;23;20062;-63
2022/10/11 04:42:21;;;;;;;9.23;4.00;;;;;;;6.93;73.72;102518.75;6217585;23;20004;-64
2022/10/11 04:44:46;;;;;;;8.82;3.53;;;;;;;6.97;73.77;102512.81;6217666;23;20004;-63
2022/10/11 04:47:13;;;;;;;12.32;3.95;;;;;;;7.03;74.18;102502.66;6217577;23;20063;-63
2022/10/11 04:49:38;;;;;;;9.73;3.28;;;;;;;7.11;72.81;102512.63;6217490;23;20395;-64
2022/10/11 04:52:04;;;;;;;8.40;3.30;;;;;;;7.06;72.84;102519.38;6217557;23;20488;-64
2022/10/11 04:54:29;;;;;;;6.45;3.80;;;;;;;6.92;72.77;102516.94;6217548;23;20016;-63
2022/10/11 04:56:54;;;;;;;9.27;3.50;;;;;;;6.87;73.81;102520.16;6217779;23;20012;-63
2022/10/11 04:59:20;;;;;;;6.22;3.50;;;;;;;6.90;73.59;102518.59;6217913;23;20415;-64
2022/10/11 05:01:45;;;;;;;9.00;3.50;;;;;;;6.99;73.11;102520.81;6217744;23;20024;-63
2022/10/11 05:04:11;;;;;;;8.68;3.40;;;;;;;7.01;72.73;102520.06;6217455;23;20457;-64
2022/10/11 05:06:36;;;;;;;6.80;3.30;;;;;;;7.02;72.85;102523.56;6217453;23;20012;-63
2022/10/11 05:09:02;;;;;;;9.30;3.65;;;;;;;7.03;72.12;102521.06;6217159;23;20054;-64
2022/10/11 05:11:27;;;;;;;7.43;3.50;;;;;;;7.12;72.70;102522.34;6217111;23;20456;-64
2022/10/11 05:13:55;;;;;;;11.45;3.92;;;;;;;7.15;72.44;102520.78;6217544;23;20032;-64
2022/10/11 05:16:21;;;;;;;7.70;3.40;;;;;;;7.01;71.21;102520.06;6217494;23;20027;-63
2022/10/11 05:18:47;;;;;;;9.82;3.47;;;;;;;6.92;72.49;102522.19;6217590;23;20009;-65
2022/10/11 05:21:18;;;;;;;8.48;3.78;;;;;;;6.87;74.43;102525.41;6217100;23;20408;-65
2022/10/11 05:23:45;;;;;;;11.07;3.72;;;;;;;6.90;73.35;102522.97;6217312;23;20001;-64
2022/10/11 05:26:10;;;;;;;8.18;3.65;;;;;;;7.03;73.93;102521.06;6217573;23;20080;-64
2022/10/11 05:28:36;;;;;;;11.30;4.10;;;;;;;7.07;72.57;102527.38;6190534;23;20012;-64
2022/10/11 05:31:02;;;;;;;7.55;3.17;;;;;;;7.10;71.42;102534.50;6217171;23;20009;-63
2022/10/11 05:33:27;;;;;;;7.35;3.65;;;;;;;7.10;71.51;102538.03;6217538;23;20032;-65
2022/10/11 05:35:53;;;;;;;6.00;3.00;;;;;;;7.16;71.40;102537.47;6190631;23;20098;-64
2022/10/11 05:38:18;;;;;;;5.38;2.72;;;;;;;7.17;72.07;102542.78;6217186;23;20379;-63
2022/10/11 05:40:44;;;;;;;5.03;2.80;;;;;;;7.19;71.94;102537.59;6216891;23;20009;-65
2022/10/11 05:43:10;;;;;;;7.72;2.80;;;;;;;7.11;71.40;102537.22;6217364;23;20435;-64
2022/10/11 05:45:39;;;;;;;6.35;2.83;;;;;;;7.07;72.58;102537.88;6217097;23;20431;-65
2022/10/11 05:48:05;;;;;;;7.65;3.17;;;;;;;6.98;71.85;102551.44;6217045;23;20020;-64
2022/10/11 05:50:31;;;;;;;5.10;2.90;;;;;;;6.99;71.63;102550.63;6216395;23;20327;-63
2022/10/11 05:52:57;;;;;;;3.45;2.60;;;;;;;6.99;71.86;102558.50;6216994;23;20036;-62
2022/10/11 05:55:22;;;;;;;5.03;2.85;;;;;;;6.99;71.70;102563.75;6217375;23;20004;-63
2022/10/11 05:57:51;;;;;;;8.63;3.28;;;;;;;6.96;72.36;102552.19;6216885;23;20015;-63
2022/10/11 06:00:17;;;;;;;6.07;3.05;;;;;;;6.94;71.45;102557.38;6216959;23;20012;-63
2022/10/11 06:02:42;;;;;;;5.32;3.20;;;;;;;6.87;70.99;102564.84;6216927;23;20088;-64
2022/10/11 06:05:08;;;;;;;5.28;2.80;;;;;;;6.86;71.99;102563.94;6216909;23;20497;-63
2022/10/11 06:07:35;;;;;;;6.22;2.80;;;;;;;6.85;71.21;102567.41;6217229;23;20004;-63
2022/10/11 06:10:01;;;;;;;5.75;3.00;;;;;;;6.80;71.87;102563.59;6216540;23;20130;-63
2022/10/11 06:12:28;;;;;;;6.38;3.30;;;;;;;6.74;72.08;102576.41;6217013;23;20050;-63
2022/10/11 06:14:53;;;;;;;5.05;3.00;;;;;;;6.70;72.44;102579.69;6216941;23;20008;-64
2022/10/11 06:17:19;;;;;;;6.53;3.30;;;;;;;6.73;73.02;102572.88;6217159;23;20032;-64
2022/10/11 06:19:44;;;;;;;7.25;3.30;;;;;;;6.81;72.10;102573.31;6216442;23;20036;-64
2022/10/11 06:22:11;;;;;;;5.25;3.08;;;;;;;6.80;71.51;102574.09;6217016;23;20004;-64
2022/10/11 06:24:36;;;;;;;4.65;2.92;;;;;;;6.80;71.91;102583.72;6216615;23;20083;-65
2022/10/11 06:27:01;;;;;;;6.65;3.13;;;;;;;6.88;71.45;102582.41;6216696;23;20005;-64
2022/10/11 06:29:27;;;;;;;7.53;3.33;;;;;;;7.00;72.81;102585.69;6216634;23;20423;-64
2022/10/11 06:31:52;;;;;;;6.00;3.55;;;;;;;7.09;72.19;102586.16;6216701;23;20011;-64
2022/10/11 06:34:17;;;;;;;11.90;3.25;;;;;;;7.01;72.21;102590.13;6216673;23;20502;-64
2022/10/11 06:36:43;;;;;;;5.40;3.05;;;;;;;6.87;72.52;102594.63;6216681;23;20378;-63
2022/10/11 06:39:08;;;;;;;8.07;3.10;;;;;;;6.86;72.76;102597.19;6215086;23;20017;-65
2022/10/11 06:41:34;;;;;;;11.38;6.32;;;;;;;7.03;73.52;102596.38;6216397;23;20427;-64
2022/10/11 06:43:59;;;;;;;12.07;6.00;;;;;;;7.26;73.21;102598.47;6216465;23;20005;-64
2022/10/11 06:46:26;;;;;;;5.28;3.20;;;;;;;7.35;72.99;102591.88;6216659;23;20146;-63
2022/10/11 06:48:52;;;;;;;7.38;3.20;;;;;;;7.38;73.49;102603.47;6216746;23;20012;-63
2022/10/11 06:51:20;;;;;;;5.90;3.10;;;;;;;7.40;73.20;102598.28;6216454;23;20055;-64
2022/10/11 06:53:57;;;;;;;5.47;3.15;;;;;;;7.41;73.64;102602.72;6216416;23;20426;-64
2022/10/11 06:56:24;;;;;;;9.38;3.42;;;;;;;7.47;74.64;102597.78;6216832;23;20084;-63
2022/10/11 06:58:52;;;;;;;8.93;3.65;;;;;;;7.59;74.61;102605.41;6216712;23;20009;-65
2022/10/11 07:01:20;;;;;;;7.65;4.20;;;;;;;7.82;76.20;102602.19;6216134;23;20008;-63
2022/10/11 07:03:46;;;;;;;6.10;3.70;;;;;;;8.04;74.13;102605.06;6216231;23;20496;-64
2022/10/11 07:06:14;;;;;;;6.97;3.70;;;;;;;8.17;73.33;102603.94;6216334;23;20008;-64
2022/10/11 07:08:40;;;;;;;10.88;4.53;;;;;;;8.21;74.24;102605.88;6216508;23;20427;-65
2022/10/11 07:11:08;;;;;;;8.48;4.07;;;;;;;8.40;75.47;102609.47;6216341;23;20012;-64
2022/10/11 07:13:33;;;;;;;11.52;4.50;;;;;;;8.68;74.36;102609.91;6216113;23;20015;-64
2022/10/11 07:16:01;;;;;;;12.27;4.70;;;;;;;9.08;73.84;102617.03;6216622;23;20040;-64
2022/10/11 07:18:26;;;;;;;11.77;4.97;;;;;;;9.40;72.70;102620.22;6216582;23;20438;-64
2022/10/11 07:20:52;;;;;;;9.07;4.65;;;;;;;9.65;71.94;102616.91;6215857;23;20044;-64
2022/10/11 07:23:17;;;;;;;10.85;5.15;;;;;;;9.81;71.69;102622.00;6216031;23;20009;-64
2022/10/11 07:25:44;;;;;;;10.48;4.97;;;;;;;10.04;71.62;102621.22;6216243;23;20036;-65
2022/10/11 07:28:09;;;;;;;13.50;4.90;;;;;;;10.30;71.05;102624.06;6216027;23;20089;-64
2022/10/11 07:30:38;;;;;;;15.25;4.85;;;;;;;10.50;71.40;102615.19;6216402;23;20447;-64
2022/10/11 07:33:03;;;;;;;14.57;5.30;;;;;;;10.73;71.23;102626.63;6216444;23;20005;-64
2022/10/11 07:35:29;;;;;;;9.93;5.18;;;;;;;11.00;70.25;102639.09;6216066;23;20004;-63
2022/10/11 07:37:54;;;;;;;10.98;4.68;;;;;;;11.26;70.10;102632.13;6216068;23;20091;-65
2022/10/11 07:40:20;;;;;;;12.15;4.80;;;;;;;11.53;69.11;102633.16;6215664;23;20004;-64
2022/10/11 07:42:45;;;;;;;11.23;4.90;;;;;;;11.76;68.83;102630.41;6216294;23;20020;-64
2022/10/11 07:45:10;;;;;;;11.85;4.65;;;;;;;11.97;68.51;102625.84;6215963;23;20040;-64
2022/10/11 07:47:36;;;;;;;12.18;5.10;;;;;;;12.15;67.70;102624.66;6215703;23;20009;-64
2022/10/11 07:50:01;;;;;;;9.55;4.93;;;;;;;12.25;67.29;102624.13;6216216;23;20091;-63
2022/10/11 07:52:27;;;;;;;11.90;4.95;;;;;;;12.39;68.15;102627.22;6214430;23;20008;-64
2022/10/11 07:54:52;;;;;;;13.35;5.07;;;;;;;12.58;67.75;102621.63;6215889;23;20005;-64
2022/10/11 07:57:17;;;;;;;12.15;4.80;;;;;;;12.91;67.51;102628.81;6215885;23;20011;-63
2022/10/11 07:59:43;;;;;;;17.10;5.53;;;;;;;13.19;66.96;102626.13;6215791;23;20434;-64
2022/10/11 08:02:11;;;;;;;12.13;5.43;;;;;;;13.20;66.59;102635.88;6215922;23;20015;-63
2022/10/11 08:04:36;;;;;;;10.90;5.10;;;;;;;13.44;66.84;102635.69;6215747;23;20439;-64
2022/10/11 08:07:02;;;;;;;17.23;5.18;;;;;;;13.63;66.95;102630.91;6215943;23;20012;-64
2022/10/11 08:09:28;;;;;;;12.38;4.90;;;;;;;13.78;65.57;102641.91;6215814;23;20330;-62
2022/10/11 08:11:53;;;;;;;14.90;5.05;;;;;;;13.89;65.38;102636.91;6215512;23;20008;-63
2022/10/11 08:14:19;;;;;;;11.93;4.93;;;;;;;13.95;65.36;102648.56;6215391;23;20078;-63
2022/10/11 08:16:44;;;;;;;14.45;4.82;;;;;;;14.15;64.93;102637.53;6215851;23;20009;-63
2022/10/11 08:19:10;;;;;;;18.02;4.65;;;;;;;14.35;65.05;102644.25;6215534;23;20015;-63
2022/10/11 08:21:35;;;;;;;15.90;4.82;;;;;;;14.39;64.26;102655.84;6215729;23;20012;-63
2022/10/11 08:24:02;;;;;;;14.30;4.80;;;;;;;14.61;64.23;102646.66;6215924;23;20008;-64
2022/10/11 08:26:28;;;;;;;14.02;4.78;;;;;;;14.83;63.19;102637.41;6215935;23;20008;-64
2022/10/11 08:28:53;;;;;;;15.75;4.93;;;;;;;15.06;61.47;102644.09;6215927;23;20390;-62
2022/10/11 08:31:18;;;;;;;13.35;4.35;;;;;;;15.10;61.24;102645.97;6215623;23;20422;-62
2022/10/11 08:33:44;;;;;;;12.05;4.60;;;;;;;15.33;61.85;102648.19;6216006;23;20009;-62
2022/10/11 08:36:10;;;;;;;12.50;4.10;;;;;;;15.44;61.67;102655.53;6216001;23;20070;-63
2022/10/11 08:38:36;;;;;;;11.65;4.35;;;;;;;15.63;60.49;102653.22;6215663;23;20020;-63
2022/10/11 08:41:02;;;;;;;16.10;4.28;;;;;;;15.80;60.18;102650.91;6215481;23;20501;-63
2022/10/11 08:43:33;;;;;;;10.57;4.40;;;;;;;16.10;59.69;102653.19;6215612;23;20005;-64
2022/10/11 08:46:01;;;;;;;13.00;4.05;;;;;;;16.21;59.29;102644.50;6215704;23;20000;-63
2022/10/11 08:48:38;;;;;;;11.95;3.83;;;;;;;16.45;58.15;102656.47;6215813;23;20099;-64
2022/10/11 08:51:25;;;;;;;15.57;4.65;;;;;;;16.62;57.30;102643.38;6216037;23;20005;-63
2022/10/11 08:53:57;;;;;;;13.88;4.03;;;;;;;16.92;57.20;102657.19;6215630;23;20012;-63
2022/10/11 08:56:25;;;;;;;13.15;4.32;;;;;;;17.07;56.21;102655.56;6215914;23;20092;-64
2022/10/11 08:58:55;;;;;;;12.43;4.00;;;;;;;17.22;56.96;102658.47;6215854;23;20013;-64
2022/10/11 09:01:24;;;;;;;10.82;4.30;;;;;;;17.54;55.10;102658.81;6215825;23;20062;-65
2022/10/11 09:03:51;;;;;;;13.00;4.03;;;;;;;17.65;54.51;102662.50;6215515;23;20320;-64
2022/10/11 09:06:22;;;;;;;13.15;4.13;;;;;;;17.54;54.82;102669.50;6215334;23;20007;-64
2022/10/11 09:09:19;;;;;;;16.07;4.07;;;;;;;17.43;54.58;102660.47;6215474;23;20072;-64
2022/10/11 09:11:56;;;;;;;14.30;4.57;;;;;;;17.99;54.00;102661.09;6215571;23;20008;-63
2022/10/11 09:14:52;;;;;;;16.70;4.60;;;;;;;18.37;53.97;102662.28;6215464;23;20442;-64
2022/10/11 09:17:48;;;;;;;17.00;4.57;;;;;;;18.73;52.87;102664.38;6215807;23;20005;-64
2022/10/11 09:20:32;;;;;;;13.90;4.00;;;;;;;18.97;51.38;102667.19;6215316;23;20008;-63
2022/10/11 09:23:30;;;;;;;14.10;3.97;;;;;;;18.98;51.31;102657.38;6215815;23;20005;-64
2022/10/11 09:26:17;;;;;;;12.82;3.90;;;;;;;19.18;49.80;102673.50;6216748;23;20047;-62
2022/10/11 09:28:49;;;;;;;15.93;4.55;;;;;;;19.13;48.97;102672.59;6217329;23;20000;-62
2022/10/11 09:31:15;;;;;;;16.63;3.58;;;;;;;19.16;48.21;102670.84;6217390;23;20423;-63
2022/10/11 09:33:49;;;;;;;14.10;3.88;;;;;;;19.04;49.01;102665.41;6217199;23;20024;-63
2022/10/11 09:36:51;;;;;;;12.30;3.85;;;;;;;19.11;49.08;102672.59;6217211;23;20005;-63
2022/10/11 09:39:33;;;;;;;14.73;3.95;;;;;;;19.12;49.45;102666.34;6217581;23;20012;-63
2022/10/11 09:42:08;;;;;;;17.50;4.20;;;;;;;19.32;47.36;102662.88;6217265;23;20071;-63
2022/10/11 09:44:37;;;;;;;16.13;3.65;;;;;;;19.33;47.19;102664.66;6217287;23;20317;-64
2022/10/11 09:47:04;;;;;;;11.18;3.53;;;;;;;19.68;47.24;102664.78;6217856;23;20417;-64
2022/10/11 09:49:37;;;;;;;13.93;3.45;;;;;;;19.61;45.82;102661.16;6217236;23;20323;-64
2022/10/11 09:52:10;;;;;;;13.02;3.20;;;;;;;19.81;46.13;102669.28;6217272;23;20008;-63
2022/10/11 09:54:41;;;;;;;12.40;3.60;;;;;;;19.96;45.84;102657.69;6191948;23;20019;-63
2022/10/11 09:57:17;;;;;;;12.90;3.30;;;;;;;20.11;45.74;102657.66;6217328;23;20034;-63
2022/10/11 09:59:42;;;;;;;11.85;3.30;;;;;;;20.26;42.87;102668.41;6217339;23;20012;-63
2022/10/11 10:02:22;;;;;;;11.85;3.58;;;;;;;20.65;44.06;102665.72;6217361;23;20004;-64
2022/10/11 10:04:54;;;;;;;9.00;3.17;;;;;;;20.92;42.29;102665.63;6217336;23;20005;-64
2022/10/11 10:07:21;;;;;;;13.82;3.58;;;;;;;21.09;41.91;102660.19;6216940;23;20362;-64
2022/10/11 10:09:46;;;;;;;10.98;3.08;;;;;;;21.46;42.53;102668.16;6216574;23;20008;-64
2022/10/11 10:12:18;;;;;;;9.27;3.00;;;;;;;21.70;41.06;102667.09;6217198;23;20008;-64
2022/10/11 10:14:54;;;;;;;12.88;3.45;;;;;;;22.23;40.85;102669.41;6217278;23;20009;-65
2022/10/11 10:17:20;;;;;;;8.25;2.65;;;;;;;22.67;37.14;102660.00;6215334;23;20015;-64
2022/10/11 10:19:50;;;;;;;11.98;2.80;;;;;;;22.63;35.68;102663.66;6216605;23;20021;-63
2022/10/11 10:22:22;;;;;;;12.45;3.00;;;;;;;22.97;36.36;102656.09;6217099;23;20308;-64
2022/10/11 10:24:50;;;;;;;10.10;2.85;;;;;;;23.06;34.55;102654.22;6216822;23;20005;-64
2022/10/11 10:27:25;;;;;;;14.18;3.13;;;;;;;22.85;34.52;102655.31;6216753;23;20012;-63
2022/10/11 10:30:08;;;;;;;11.40;2.85;;;;;;;23.07;34.67;102658.69;6217103;23;20059;-63
2022/10/11 10:32:41;;;;;;;8.88;2.58;;;;;;;23.21;35.01;102646.81;6215184;23;20004;-65
2022/10/11 10:35:29;;;;;;;8.13;2.72;;;;;;;23.59;34.24;102647.19;6216623;23;20000;-65
2022/10/11 10:38:13;;;;;;;8.32;2.78;;;;;;;23.71;32.40;102656.03;6216408;23;20163;-65
2022/10/11 10:40:40;;;;;;;8.40;2.45;;;;;;;23.50;30.78;102650.91;6216477;23;20004;-65
2022/10/11 10:43:14;;;;;;;9.95;2.75;;;;;;;23.84;31.44;102643.22;6216683;23;20062;-65
2022/10/11 10:46:06;;;;;;;9.63;2.70;;;;;;;24.37;31.18;102643.25;6216560;23;20008;-65
2022/10/11 10:48:50;;;;;;;;;;;;;;;24.60;35.37;102653.66;6217328;23;20009;-66
2022/10/11 10:51:19;;;;;;;9.68;3.03;;;;;;;25.00;29.88;102648.34;6216531;23;19911;-64
2022/10/11 10:53:53;;;;;;;11.02;3.20;;;;;;;25.21;30.07;102638.91;6216749;23;20000;-65
2022/10/11 10:56:33;;;;;;;9.43;2.97;;;;;;;25.43;31.54;102650.13;6216516;23;20004;-64
2022/10/11 10:59:12;;;;;;;9.77;2.88;;;;;;;25.36;29.58;102646.69;6216373;23;20470;-64
2022/10/11 11:02:15;;;;;;;11.35;2.65;;;;;;;25.29;31.55;102636.91;6216576;23;20005;-64
2022/10/11 11:04:43;;;;;;;;;;;;;;;25.26;34.33;102636.09;6217037;23;20083;-66
2022/10/11 11:07:28;;;;;;;11.85;3.00;;;;;;;25.26;32.02;102627.97;6216452;23;20302;-65
2022/10/11 11:10:12;;;;;;;14.75;2.80;;;;;;;25.51;30.23;102634.63;6216034;23;20087;-65
2022/10/11 11:12:58;;;;;;;8.88;3.03;;;;;;;25.39;28.66;102635.78;6216697;23;20008;-65
2022/10/11 11:15:46;;;;;;;11.85;2.95;;;;;;;25.32;30.11;102630.56;6216303;23;20007;-64
2022/10/11 11:18:24;;;;;;;10.65;2.65;;;;;;;25.74;29.34;102631.38;6216612;23;20005;-65
2022/10/11 11:21:14;;;;;;;10.35;2.90;;;;;;;25.95;28.28;102629.97;6216098;23;20017;-63
2022/10/11 11:24:24;;;;;;;12.63;2.70;;;;;;;26.05;30.02;102620.69;6216617;23;20019;-63
2022/10/11 11:26:57;;;;;;;13.27;2.88;;;;;;;26.19;27.35;102618.50;6185619;23;20015;-63
2022/10/11 11:29:47;;;;;;;13.48;3.17;;;;;;;26.24;27.97;102629.22;6216011;23;20435;-65
2022/10/11 11:32:35;;;;;;;11.18;2.90;;;;;;;26.27;27.55;102622.84;6216527;23;20004;-65
2022/10/11 11:35:08;;;;;;;10.90;2.92;;;;;;;25.83;26.59;102619.47;6216158;23;20027;-64
2022/10/11 11:37:37;;;;;;;9.45;2.78;;;;;;;25.81;27.53;102610.47;6216108;23;20012;-64
2022/10/11 11:40:11;;;;;;;8.85;2.90;;;;;;;25.84;28.91;102614.00;6214206;23;20008;-64